Time;durP1;ratioP1;P1;durP2;ratioP2;P2;SDS_P1;SDS_P2;PMS_P1;PMS_P2;Temp;Humidity;BMP_temperature;BMP_pressure;BME280_temperature;BME280_humidity;BME280_pressure;Samples;Min_cycle;Max_cycle;Signal;HPM_P1;HPM_P2
2022/10/17 00:00:05;;;;;;;34.85;15.65;;;;;;;8.90;63.34;96426.81;5081420;28;20457;-75
2022/10/17 00:02:31;;;;;;;29.92;15.18;;;;;;;9.18;63.25;96481.66;5081379;28;20040;-76
2022/10/17 00:04:56;;;;;;;30.70;16.05;;;;;;;9.72;63.58;96559.03;5062903;28;20130;-75
2022/10/17 00:07:21;;;;;;;26.55;15.13;;;;;;;9.28;63.14;96489.81;5081285;28;20417;-76
2022/10/17 00:09:47;;;;;;;26.58;15.07;;;;;;;9.06;63.13;96449.94;5063750;28;20436;-75
2022/10/17 00:12:12;;;;;;;31.52;15.40;;;;;;;9.52;63.43;96525.00;5062896;28;20048;-75
2022/10/17 00:14:38;;;;;;;27.45;14.75;;;;;;;9.64;63.75;96557.56;5081650;28;20052;-75
2022/10/17 00:17:04;;;;;;;29.88;15.35;;;;;;;9.13;63.72;96470.97;5080497;28;20664;-76
2022/10/17 00:19:29;;;;;;;34.95;16.58;;;;;;;9.26;63.47;96495.34;5081325;28;20035;-76
2022/10/17 00:21:54;;;;;;;29.90;15.02;;;;;;;9.63;63.25;96562.03;5080946;28;20048;-76
2022/10/17 00:24:20;;;;;;;30.20;14.20;;;;;;;9.63;63.69;96563.88;5081006;28;20366;-76
2022/10/17 00:26:45;;;;;;;29.60;15.20;;;;;;;9.55;64.17;96570.34;5081219;28;20036;-76
2022/10/17 00:29:11;;;;;;;28.83;15.73;;;;;;;9.55;63.83;96557.09;5061551;28;20617;-76
2022/10/17 00:31:36;;;;;;;28.38;15.23;;;;;;;9.57;63.86;96560.34;5079949;28;20964;-76
2022/10/17 00:34:02;;;;;;;30.98;15.63;;;;;;;9.52;63.37;96554.94;5079935;28;20498;-76
2022/10/17 00:36:27;;;;;;;32.35;15.63;;;;;;;8.84;63.54;96452.38;5080728;28;20100;-76
2022/10/17 00:38:55;;;;;;;24.45;14.55;;;;;;;9.52;63.73;96572.66;5061439;28;20051;-75
2022/10/17 00:41:24;;;;;;;31.08;16.20;;;;;;;9.08;63.85;96495.47;5080040;28;20507;-77
2022/10/17 00:43:51;;;;;;;27.42;14.40;;;;;;;9.45;64.05;96575.44;5080243;28;20478;-76
2022/10/17 00:46:19;;;;;;;27.55;15.52;;;;;;;9.40;64.28;96570.03;5069860;28;20119;-76
2022/10/17 00:48:47;;;;;;;32.75;15.98;;;;;;;9.29;63.86;96545.19;5079730;28;20142;-76
2022/10/17 00:51:14;;;;;;;29.40;14.25;;;;;;;9.02;64.15;96501.69;5058260;28;20064;-75
2022/10/17 00:53:40;;;;;;;27.85;15.07;;;;;;;9.18;64.20;96543.34;5069968;28;20051;-76
2022/10/17 00:56:05;;;;;;;27.58;14.18;;;;;;;9.30;63.89;96567.16;5041637;28;20040;-76
2022/10/17 00:58:31;;;;;;;30.05;14.95;;;;;;;9.04;64.20;96535.88;5041217;28;20045;-75
2022/10/17 01:00:56;;;;;;;27.08;15.13;;;;;;;9.29;64.58;96586.72;5077794;28;20154;-75
2022/10/17 01:03:22;;;;;;;26.40;14.55;;;;;;;8.83;64.41;96500.22;5061404;28;20105;-75
2022/10/17 01:05:48;;;;;;;25.50;13.98;;;;;;;9.11;64.51;96547.94;5069766;28;20110;-76
2022/10/17 01:08:14;;;;;;;26.48;15.38;;;;;;;8.56;64.65;96462.00;5061168;28;20111;-76
2022/10/17 01:10:58;;;;;;;22.88;14.48;;;;;;;8.59;64.54;96464.22;5079034;28;20818;-75
2022/10/17 01:13:37;;;;;;;26.42;14.85;;;;;;;9.14;64.64;96542.19;5061889;28;20039;-75
2022/10/17 01:16:11;;;;;;;31.67;15.30;;;;;;;9.31;64.67;96566.09;5079899;28;20581;-76
2022/10/17 01:19:13;;;;;;;27.70;13.25;;;;;;;8.97;64.15;96514.81;5079799;28;20052;-76
2022/10/17 01:22:02;;;;;;;27.75;13.68;;;;;;;9.30;64.19;96569.81;5079008;28;20565;-76
2022/10/17 01:24:48;;;;;;;24.90;14.13;;;;;;;9.29;64.32;96562.91;5069417;28;20044;-76
2022/10/17 01:27:35;;;;;;;25.10;13.52;;;;;;;9.28;64.34;96561.28;5079852;28;20058;-77
2022/10/17 01:30:07;;;;;;;29.08;14.35;;;;;;;9.24;64.62;96560.94;5078695;28;20121;-76
2022/10/17 01:32:59;;;;;;;;;;;;;;;9.21;64.37;96565.91;5080216;28;20453;-76
2022/10/17 01:35:24;;;;;;;26.77;13.38;;;;;;;9.15;64.24;96559.69;5074792;28;19920;-76
2022/10/17 01:38:26;;;;;;;23.60;12.98;;;;;;;8.74;64.31;96504.22;5060712;28;20059;-76
2022/10/17 01:41:30;;;;;;;29.98;13.45;;;;;;;9.13;64.39;96571.53;5037747;28;20159;-77
2022/10/17 01:44:19;;;;;;;30.13;13.82;;;;;;;9.11;64.65;96569.13;5037937;28;20100;-77
2022/10/17 01:46:55;;;;;;;29.52;12.25;;;;;;;9.01;64.78;96557.47;5042412;28;20901;-76
2022/10/17 01:49:25;;;;;;;23.13;13.07;;;;;;;8.76;64.78;96526.78;5069717;28;20447;-77
2022/10/17 01:51:56;;;;;;;24.17;12.68;;;;;;;8.79;64.83;96544.81;5072966;28;20517;-77
2022/10/17 01:54:43;;;;;;;22.33;12.73;;;;;;;8.68;64.86;96535.03;5074399;28;20036;-76
2022/10/17 01:57:20;;;;;;;25.85;11.98;;;;;;;9.02;64.37;96582.91;5060500;28;20116;-77
2022/10/17 01:59:50;;;;;;;23.40;12.82;;;;;;;8.48;65.13;96497.53;5079348;28;20075;-76
2022/10/17 02:02:17;;;;;;;20.98;11.98;;;;;;;8.03;65.09;96431.91;5077622;28;20128;-76
2022/10/17 02:04:45;;;;;;;21.33;11.50;;;;;;;8.67;64.93;96524.69;5078170;28;20095;-76
2022/10/17 02:07:12;;;;;;;22.33;11.98;;;;;;;8.68;64.68;96534.25;5076851;28;20126;-77
2022/10/17 02:09:38;;;;;;;20.13;11.70;;;;;;;8.48;64.63;96513.38;5079207;28;20032;-77
2022/10/17 02:12:36;;;;;;;23.85;12.30;;;;;;;8.89;64.87;96589.22;5059680;28;20155;-76
2022/10/17 02:15:33;;;;;;;20.85;10.55;;;;;;;8.89;64.73;96592.69;5078805;28;20040;-76
2022/10/17 02:18:10;;;;;;;18.27;11.23;;;;;;;8.86;64.82;96597.63;5078436;28;20095;-77
2022/10/17 02:20:57;;;;;;;26.20;11.52;;;;;;;8.67;64.78;96567.81;5078763;28;20414;-76
2022/10/17 02:23:41;;;;;;;25.23;11.13;;;;;;;8.84;64.93;96591.75;5065867;28;20064;-76
2022/10/17 02:26:25;;;;;;;20.98;11.43;;;;;;;8.86;65.19;96587.84;5060336;28;20044;-77
2022/10/17 02:29:06;;;;;;;21.40;11.68;;;;;;;8.88;64.67;96590.25;5060091;28;20558;-75
2022/10/17 02:31:44;;;;;;;22.00;11.37;;;;;;;8.33;64.54;96516.47;5059604;28;20117;-77
2022/10/17 02:34:24;;;;;;;19.98;10.98;;;;;;;8.18;65.24;96504.66;5076798;28;20145;-76
2022/10/17 02:36:55;;;;;;;18.55;10.73;;;;;;;8.83;65.09;96604.19;5078104;28;20198;-77
2022/10/17 02:39:22;;;;;;;17.67;11.13;;;;;;;8.61;64.72;96567.91;5077988;28;20047;-76
2022/10/17 02:41:50;;;;;;;21.00;9.95;;;;;;;8.85;65.03;96603.94;5076721;28;20131;-76
2022/10/17 02:44:16;;;;;;;20.60;9.65;;;;;;;8.32;64.79;96529.91;5078443;28;20070;-76
2022/10/17 02:46:46;;;;;;;21.20;11.50;;;;;;;8.79;64.63;96607.50;5077252;28;20042;-76
2022/10/17 02:49:14;;;;;;;21.92;10.88;;;;;;;8.77;64.55;96610.34;5069695;28;20570;-77
2022/10/17 02:51:50;;;;;;;19.92;10.77;;;;;;;7.95;64.84;96490.34;5076867;28;20717;-77
2022/10/17 02:54:26;;;;;;;26.48;11.63;;;;;;;8.74;64.71;96618.75;5077948;28;20040;-76
2022/10/17 02:56:58;;;;;;;22.70;10.15;;;;;;;8.65;64.05;96603.44;5059945;28;20055;-76
2022/10/17 02:59:26;;;;;;;21.92;10.98;;;;;;;8.75;64.43;96620.38;5078393;28;20142;-76
2022/10/17 03:01:52;;;;;;;15.85;10.30;;;;;;;8.77;64.59;96620.16;5076187;28;20039;-77
2022/10/17 03:04:18;;;;;;;22.10;10.25;;;;;;;8.76;64.69;96626.47;5076099;28;20140;-77
2022/10/17 03:06:46;;;;;;;30.05;10.95;;;;;;;8.73;64.76;96625.09;5059074;28;20471;-75
2022/10/17 03:09:12;;;;;;;28.58;10.95;;;;;;;8.12;64.97;96533.59;5059191;28;20068;-75
2022/10/17 03:11:38;;;;;;;24.33;10.90;;;;;;;8.67;64.86;96631.28;5068017;28;20046;-75
2022/10/17 03:14:03;;;;;;;19.70;11.77;;;;;;;8.40;64.66;96644.06;5077970;28;20063;-77
2022/10/17 03:16:29;;;;;;;24.92;12.15;;;;;;;8.44;64.71;96639.13;5078077;28;20058;-75
2022/10/17 03:18:54;;;;;;;19.60;10.85;;;;;;;8.32;63.96;96612.66;5077625;28;20040;-75
2022/10/17 03:21:21;;;;;;;20.20;10.93;;;;;;;8.48;64.45;96637.66;5066299;28;20043;-75
2022/10/17 03:23:47;;;;;;;23.75;11.68;;;;;;;8.07;64.23;96559.91;5064457;28;20086;-76
2022/10/17 03:26:12;;;;;;;19.27;11.18;;;;;;;8.57;63.79;96631.00;5068546;28;20075;-75
2022/10/17 03:28:37;;;;;;;30.95;12.32;;;;;;;7.96;63.66;96536.06;5073273;28;20162;-75
2022/10/17 03:31:08;;;;;;;31.55;10.98;;;;;;;8.60;63.61;96645.63;5064011;28;20046;-75
2022/10/17 03:33:35;;;;;;;20.42;11.45;;;;;;;8.09;64.20;96571.03;5038606;28;20094;-76
2022/10/17 03:36:06;;;;;;;22.33;11.32;;;;;;;7.88;64.17;96528.44;5063225;28;20053;-76
2022/10/17 03:38:32;;;;;;;27.08;12.60;;;;;;;8.14;64.04;96576.47;5075259;28;20048;-75
2022/10/17 03:40:58;;;;;;;17.90;11.52;;;;;;;8.43;64.35;96640.97;5076770;28;20043;-74
2022/10/17 03:43:23;;;;;;;19.13;10.88;;;;;;;7.95;64.81;96572.25;5063061;28;20044;-76
2022/10/17 03:45:49;;;;;;;21.80;11.32;;;;;;;7.93;64.57;96574.31;5059114;28;20040;-75
2022/10/17 03:48:14;;;;;;;22.45;11.98;;;;;;;8.38;64.96;96650.63;5077201;28;20390;-76
2022/10/17 03:50:39;;;;;;;27.15;12.07;;;;;;;8.34;64.95;96642.31;5077785;28;20620;-75
2022/10/17 03:53:05;;;;;;;31.27;11.95;;;;;;;7.84;65.12;96580.13;5076983;28;20050;-76
2022/10/17 03:55:30;;;;;;;25.83;11.70;;;;;;;8.25;65.17;96645.44;5071958;28;20044;-77
2022/10/17 03:57:55;;;;;;;29.50;11.48;;;;;;;8.15;64.81;96624.84;5059196;28;20070;-75
2022/10/17 04:00:21;;;;;;;22.13;11.20;;;;;;;7.75;65.05;96577.78;5038422;28;20182;-75
2022/10/17 04:02:46;;;;;;;28.02;12.85;;;;;;;7.36;65.04;96510.41;5060098;28;20090;-76
2022/10/17 04:05:12;;;;;;;28.73;13.13;;;;;;;8.06;64.88;96634.91;5065118;28;20584;-76
2022/10/17 04:07:37;;;;;;;31.73;12.38;;;;;;;8.21;65.01;96654.88;5071127;28;20051;-75
2022/10/17 04:10:04;;;;;;;31.02;13.80;;;;;;;8.22;64.93;96652.00;5056867;28;20040;-76
2022/10/17 04:12:29;;;;;;;30.83;12.40;;;;;;;8.17;65.10;96657.13;5063339;28;20036;-76
2022/10/17 04:14:55;;;;;;;27.20;13.30;;;;;;;7.27;64.82;96513.56;5052180;28;20048;-76
2022/10/17 04:17:20;;;;;;;26.70;12.55;;;;;;;7.97;65.43;96624.88;5063341;28;20829;-76
2022/10/17 04:19:47;;;;;;;23.85;12.25;;;;;;;7.08;65.10;96507.47;5066822;28;20066;-77
2022/10/17 04:22:13;;;;;;;20.42;12.32;;;;;;;7.91;65.34;96634.50;5055267;28;20073;-77
2022/10/17 04:24:38;;;;;;;26.08;12.52;;;;;;;7.88;65.38;96639.38;5052948;28;20128;-76
2022/10/17 04:27:04;;;;;;;25.85;12.55;;;;;;;7.23;65.35;96544.88;5070678;28;20048;-76
2022/10/17 04:29:29;;;;;;;24.75;13.20;;;;;;;7.77;65.31;96629.56;5052172;28;20044;-77
2022/10/17 04:31:54;;;;;;;26.00;12.80;;;;;;;7.85;65.69;96639.84;5064378;28;20070;-77
2022/10/17 04:34:20;;;;;;;33.33;14.40;;;;;;;7.62;65.40;96612.28;5069036;28;20046;-76
2022/10/17 04:36:46;;;;;;;35.38;14.82;;;;;;;7.09;65.42;96524.91;5047207;28;20048;-78
2022/10/17 04:39:12;;;;;;;24.65;13.45;;;;;;;8.04;65.38;96676.59;5068163;28;20072;-77
2022/10/17 04:41:37;;;;;;;55.85;15.25;;;;;;;7.23;65.40;96550.16;5066263;28;20135;-76
2022/10/17 04:44:03;;;;;;;29.83;14.15;;;;;;;7.46;65.47;96588.28;5046442;28;20044;-77
2022/10/17 04:46:28;;;;;;;37.00;14.30;;;;;;;7.12;65.58;96532.38;5051214;28;20040;-78
2022/10/17 04:48:53;;;;;;;28.50;12.70;;;;;;;8.05;65.32;96672.13;5045749;28;20039;-77
2022/10/17 04:51:19;;;;;;;26.95;13.30;;;;;;;8.08;65.32;96682.25;5042972;28;20498;-77
2022/10/17 04:53:45;;;;;;;141.02;20.30;;;;;;;8.07;64.96;96675.34;5061846;28;20577;-77
2022/10/17 04:56:16;;;;;;;28.38;12.45;;;;;;;7.77;64.64;96638.31;5070003;28;20498;-77
2022/10/17 04:58:43;;;;;;;34.75;12.07;;;;;;;7.88;64.40;96660.53;5040894;28;20048;-77
2022/10/17 05:01:11;;;;;;;28.92;13.75;;;;;;;3.63;63.98;95982.66;5069176;28;20588;-76
2022/10/17 05:03:39;;;;;;;36.10;12.65;;;;;;;8.08;64.28;96685.72;5051058;28;20047;-80
2022/10/17 05:06:08;;;;;;;37.15;14.07;;;;;;;8.07;64.27;96689.38;5049196;28;20383;-77
2022/10/17 05:08:34;;;;;;;31.58;13.55;;;;;;;8.10;64.27;96688.13;5057075;28;20384;-77
2022/10/17 05:11:00;;;;;;;32.38;13.63;;;;;;;7.89;63.73;96697.28;5065792;28;20119;-77
2022/10/17 05:13:25;;;;;;;38.83;13.27;;;;;;;7.15;64.25;96560.97;5044927;28;20833;-78
2022/10/17 05:15:53;;;;;;;30.05;12.70;;;;;;;7.65;63.99;96634.75;5044762;28;20108;-79
2022/10/17 05:18:19;;;;;;;33.97;14.52;;;;;;;7.28;64.25;96632.09;5049500;28;20036;-78
2022/10/17 05:20:44;;;;;;;29.65;13.88;;;;;;;7.21;63.88;96591.75;5062329;28;20032;-78
2022/10/17 05:23:09;;;;;;;32.47;12.75;;;;;;;7.53;63.43;96661.09;5065354;28;20048;-77
2022/10/17 05:25:35;;;;;;;27.02;14.45;;;;;;;6.54;63.85;96526.63;5071355;28;20047;-79
2022/10/17 05:28:00;;;;;;;44.78;14.65;;;;;;;6.61;64.26;96580.09;5069469;28;20101;-79
2022/10/17 05:30:26;;;;;;;45.53;17.60;;;;;;;7.82;64.37;96706.31;5051865;28;20040;-79
2022/10/17 05:32:54;;;;;;;44.63;16.50;;;;;;;7.35;63.50;96642.56;5054197;28;20573;-79
2022/10/17 05:35:21;;;;;;;67.50;23.02;;;;;;;7.97;63.78;96712.84;5049725;28;20052;-78
2022/10/17 05:37:47;;;;;;;29.77;15.13;;;;;;;7.35;63.85;96630.19;5065753;28;20155;-78
2022/10/17 05:40:12;;;;;;;33.75;15.15;;;;;;;6.98;63.17;96560.72;5048799;28;20043;-79
2022/10/17 05:42:38;;;;;;;35.83;14.80;;;;;;;8.03;63.22;96725.19;5068796;28;20040;-79
2022/10/17 05:45:04;;;;;;;47.53;14.05;;;;;;;8.14;63.31;96723.66;5069471;28;20844;-79
2022/10/17 05:47:29;;;;;;;29.58;13.70;;;;;;;6.95;63.18;96531.31;5045756;28;20044;-79
2022/10/17 05:49:55;;;;;;;29.02;13.30;;;;;;;7.42;62.92;96598.44;5068611;28;20047;-78
2022/10/17 05:52:20;;;;;;;35.60;14.20;;;;;;;7.57;63.38;96625.31;5067111;28;20143;-79
2022/10/17 05:54:45;;;;;;;31.05;13.48;;;;;;;8.24;63.38;96734.50;5044127;28;20109;-78
2022/10/17 05:57:11;;;;;;;33.35;13.43;;;;;;;8.01;62.95;96692.09;5047175;28;20624;-82
2022/10/17 05:59:36;;;;;;;25.52;12.88;;;;;;;7.74;62.76;96625.53;5071322;28;20047;-79
2022/10/17 06:02:02;;;;;;;38.42;13.82;;;;;;;7.41;63.25;96599.47;5047386;28;20059;-78
2022/10/17 06:04:27;;;;;;;33.60;13.18;;;;;;;7.73;63.51;96648.50;5058424;28;20570;-81
2022/10/17 06:06:56;;;;;;;24.65;12.13;;;;;;;7.75;63.26;96638.53;5063795;28;20047;-82
2022/10/17 06:09:22;;;;;;;24.90;13.55;;;;;;;8.46;63.30;96750.78;5042001;28;20075;-80
2022/10/17 06:11:48;;;;;;;25.00;12.93;;;;;;;7.35;62.99;96547.56;5046524;28;20051;-79
2022/10/17 06:14:13;;;;;;;37.00;16.10;;;;;;;8.65;62.96;96747.06;5045107;28;20048;-80
2022/10/17 06:16:39;;;;;;;33.80;15.65;;;;;;;7.87;62.87;96624.56;5046838;28;20224;-81
2022/10/17 06:19:04;;;;;;;45.63;17.35;;;;;;;8.56;63.38;96747.59;5064308;28;20057;-80
2022/10/17 06:21:33;;;;;;;34.85;17.83;;;;;;;7.23;62.83;96542.22;5045229;28;20040;-81
2022/10/17 06:23:59;;;;;;;38.97;17.10;;;;;;;8.40;62.66;96730.47;5018593;28;20076;-80
2022/10/17 06:26:24;;;;;;;36.65;18.52;;;;;;;8.52;62.96;96737.47;5046834;28;20147;-80
2022/10/17 06:28:49;;;;;;;34.60;18.55;;;;;;;8.42;63.10;96729.25;5031000;28;20264;-81
2022/10/17 06:31:16;;;;;;;50.60;18.70;;;;;;;8.56;63.19;96744.94;5043559;28;20043;-80
2022/10/17 06:33:41;;;;;;;45.30;18.17;;;;;;;8.76;63.07;96778.06;5031711;28;20181;-81
2022/10/17 06:36:11;;;;;;;36.60;18.90;;;;;;;8.26;62.73;96719.22;5037463;28;20045;-79
2022/10/17 06:38:36;;;;;;;42.63;18.85;;;;;;;7.67;62.45;96599.22;5040653;28;20166;-79
2022/10/17 06:41:07;;;;;;;46.10;18.63;;;;;;;8.29;62.42;96696.84;5042031;28;20354;-80
2022/10/17 06:43:36;;;;;;;53.93;19.97;;;;;;;8.63;62.54;96729.78;5016884;28;20063;-80
2022/10/17 06:46:02;;;;;;;43.83;20.20;;;;;;;8.33;62.63;96705.97;5040180;28;20791;-78
2022/10/17 06:48:27;;;;;;;50.72;21.27;;;;;;;7.46;62.52;96535.47;5016330;28;20040;-79
2022/10/17 06:50:57;;;;;;;41.95;18.48;;;;;;;8.64;62.28;96723.47;5024289;28;20716;-78
2022/10/17 06:53:27;;;;;;;43.78;21.23;;;;;;;8.99;62.47;96784.50;5046165;28;20119;-82
2022/10/17 06:55:54;;;;;;;41.53;19.60;;;;;;;8.68;62.33;96714.09;5034753;28;20037;-78
2022/10/17 06:58:20;;;;;;;43.05;20.35;;;;;;;9.04;61.77;96768.75;5038713;28;20078;-76
2022/10/17 07:00:45;;;;;;;44.22;19.73;;;;;;;8.65;61.89;96711.88;5036316;28;20239;-80
2022/10/17 07:03:11;;;;;;;48.15;20.75;;;;;;;7.03;61.75;96437.91;5039325;28;20037;-78
2022/10/17 07:05:36;;;;;;;42.72;19.70;;;;;;;9.03;61.59;96745.94;5017857;28;20040;-79
2022/10/17 07:08:03;;;;;;;39.97;19.42;;;;;;;9.35;61.75;96778.28;5027381;28;21806;-79
2022/10/17 07:10:29;;;;;;;44.33;21.00;;;;;;;8.29;61.87;96614.91;5043916;28;20051;-78
2022/10/17 07:12:54;;;;;;;50.00;23.67;;;;;;;8.63;62.43;96696.22;5012314;28;20068;-79
2022/10/17 07:15:20;;;;;;;47.45;22.23;;;;;;;8.44;62.28;96641.78;5029694;28;20869;-79
2022/10/17 07:17:49;;;;;;;44.97;21.58;;;;;;;8.19;62.31;96610.16;5019767;28;20054;-78
2022/10/17 07:20:15;;;;;;;37.90;21.17;;;;;;;9.35;62.25;96770.31;5034069;28;20041;-79
2022/10/17 07:22:40;;;;;;;37.40;20.45;;;;;;;8.88;62.13;96693.44;5035079;28;20107;-79
2022/10/17 07:25:06;;;;;;;42.95;19.98;;;;;;;9.04;61.69;96711.31;5045392;28;20050;-80
2022/10/17 07:27:32;;;;;;;43.78;20.60;;;;;;;9.08;62.02;96695.81;5032921;28;20132;-80
2022/10/17 07:29:57;;;;;;;46.83;22.02;;;;;;;8.35;61.17;96582.31;5026447;28;20029;-81
2022/10/17 07:32:23;;;;;;;56.67;24.63;;;;;;;8.58;61.18;96621.25;5032991;28;20045;-79
2022/10/17 07:34:48;;;;;;;62.15;22.67;;;;;;;8.94;61.15;96674.00;5043587;28;20384;-80
2022/10/17 07:37:14;;;;;;;42.15;23.38;;;;;;;9.12;61.40;96692.47;5041041;28;20222;-80
2022/10/17 07:39:39;;;;;;;53.50;23.95;;;;;;;8.98;61.21;96659.31;5043291;28;20845;-81
2022/10/17 07:42:06;;;;;;;49.42;23.35;;;;;;;9.01;61.23;96663.31;5038875;28;20049;-80
2022/10/17 07:44:32;;;;;;;59.30;22.77;;;;;;;9.89;60.63;96787.81;5022956;28;20040;-79
2022/10/17 07:46:57;;;;;;;47.17;23.10;;;;;;;9.37;60.79;96683.53;5033614;28;20049;-81
2022/10/17 07:49:22;;;;;;;43.25;22.50;;;;;;;9.37;60.29;96686.19;4994583;28;20907;-80
2022/10/17 07:51:48;;;;;;;44.17;23.17;;;;;;;9.46;60.50;96711.31;5036175;28;20178;-80
2022/10/17 07:54:20;;;;;;;50.80;24.00;;;;;;;9.33;60.69;96680.53;5035044;28;20102;-81
2022/10/17 07:56:49;;;;;;;;;;;;;;;10.00;61.11;96779.03;5043236;28;20121;-81
2022/10/17 07:59:18;;;;;;;42.88;23.02;;;;;;;10.02;60.44;96777.78;5028534;28;20048;-79
2022/10/17 08:01:43;;;;;;;46.47;21.90;;;;;;;9.02;60.37;96602.25;5029360;28;20036;-79
2022/10/17 08:04:08;;;;;;;45.03;22.90;;;;;;;9.86;60.48;96720.16;5046709;28;20040;-80
2022/10/17 08:06:34;;;;;;;46.17;23.98;;;;;;;9.73;60.56;96707.16;5044575;28;20760;-79
2022/10/17 08:09:00;;;;;;;44.72;23.02;;;;;;;10.34;60.00;96777.44;5044075;28;20043;-79
2022/10/17 08:11:26;;;;;;;49.38;24.58;;;;;;;9.44;59.86;96618.84;5051249;28;20036;-78
2022/10/17 08:13:52;;;;;;;52.08;23.63;;;;;;;10.54;59.90;96769.91;5029341;28;20047;-80
2022/10/17 08:16:17;;;;;;;43.10;25.15;;;;;;;10.58;59.86;96771.06;5031167;28;20036;-81
2022/10/17 08:18:43;;;;;;;40.38;23.10;;;;;;;9.91;59.38;96663.84;5033907;28;20124;-79
2022/10/17 08:21:09;;;;;;;56.45;25.05;;;;;;;10.60;59.42;96776.16;5032285;28;20037;-79
2022/10/17 08:23:36;;;;;;;58.15;24.70;;;;;;;10.69;58.95;96767.56;5049573;28;20048;-79
2022/10/17 08:26:05;;;;;;;52.03;24.30;;;;;;;10.38;59.21;96699.00;5067812;28;20047;-78
2022/10/17 08:28:33;;;;;;;47.55;24.27;;;;;;;10.72;58.85;96745.06;5067930;28;20048;-78
2022/10/17 08:31:08;;;;;;;44.15;23.45;;;;;;;10.78;58.66;96758.19;5066684;28;20062;-78
2022/10/17 08:33:34;;;;;;;45.83;22.80;;;;;;;10.87;58.06;96755.97;5042962;28;20040;-79
2022/10/17 08:36:00;;;;;;;52.95;24.70;;;;;;;10.14;58.17;96634.63;5067407;28;20056;-82
2022/10/17 08:38:28;;;;;;;43.53;22.25;;;;;;;10.79;56.78;96722.66;5058594;28;20150;-78
2022/10/17 08:40:59;;;;;;;45.15;21.90;;;;;;;10.50;55.84;96640.66;5064375;28;20036;-79
2022/10/17 08:43:36;;;;;;;48.03;23.30;;;;;;;11.25;56.50;96757.19;5042787;28;20723;-80
2022/10/17 08:46:05;;;;;;;40.53;23.88;;;;;;;11.35;56.53;96757.38;5057401;28;20036;-81
2022/10/17 08:48:38;;;;;;;50.78;22.38;;;;;;;10.66;56.30;96639.88;5066037;28;20184;-82
2022/10/17 08:51:23;;;;;;;51.63;23.08;;;;;;;11.40;56.10;96766.22;5067323;28;20040;-79
2022/10/17 08:53:50;;;;;;;42.65;22.15;;;;;;;10.26;55.64;96569.13;5065115;28;20729;-80
2022/10/17 08:56:34;;;;;;;42.83;22.38;;;;;;;11.62;55.30;96763.66;5071269;28;20047;-86
2022/10/17 08:58:59;;;;;;;34.38;16.70;;;;;;;10.52;53.12;96607.53;5062417;28;20575;-79
2022/10/17 09:01:31;;;;;;;35.92;18.00;;;;;;;11.56;54.71;96762.78;5050480;28;20039;-82
2022/10/17 09:04:15;;;;;;;36.65;18.25;;;;;;;11.62;54.49;96761.00;5067693;28;21603;-80
2022/10/17 09:06:51;;;;;;;39.30;16.50;;;;;;;10.89;53.59;96631.81;5067693;28;20044;-80
2022/10/17 09:09:23;;;;;;;31.98;12.95;;;;;;;11.08;52.41;96645.63;5069525;28;20040;-79
2022/10/17 09:12:31;;;;;;;27.80;13.13;;;;;;;11.89;52.17;96767.34;5051432;28;20048;-80
2022/10/17 09:15:30;;;;;;;35.00;14.73;;;;;;;12.05;51.99;96765.72;5041087;28;20044;-79
2022/10/17 09:18:02;;;;;;;25.73;14.00;;;;;;;11.36;50.83;96656.22;5069813;28;20470;-79
2022/10/17 09:20:33;;;;;;;23.33;14.10;;;;;;;12.03;50.52;96746.53;5070608;28;20036;-80
2022/10/17 09:23:12;;;;;;;28.73;14.35;;;;;;;11.75;50.54;96680.97;5067535;28;20927;-80
2022/10/17 09:25:46;;;;;;;24.40;13.30;;;;;;;12.33;50.56;96760.25;5070548;28;20859;-80
2022/10/17 09:28:25;;;;;;;25.70;13.85;;;;;;;12.18;50.37;96724.66;5071490;28;20047;-82
2022/10/17 09:31:26;;;;;;;21.40;11.43;;;;;;;12.47;48.79;96757.22;5062233;28;20035;-78
2022/10/17 09:33:54;;;;;;;17.27;9.25;;;;;;;12.54;47.56;96765.81;5020274;28;20067;-79
2022/10/17 09:36:29;;;;;;;18.85;7.88;;;;;;;12.45;46.71;96727.38;5047779;28;20113;-79
2022/10/17 09:39:21;;;;;;;13.57;6.07;;;;;;;11.74;47.22;96593.50;5041224;28;20729;-76
2022/10/17 09:41:54;;;;;;;17.65;6.32;;;;;;;12.70;47.02;96730.38;5068730;28;20047;-79
2022/10/17 09:44:30;;;;;;;18.73;6.60;;;;;;;12.91;47.85;96755.34;5062977;28;20059;-77
2022/10/17 09:47:18;;;;;;;15.77;6.93;;;;;;;13.04;48.45;96750.47;5039189;28;20074;-77
2022/10/17 09:49:45;;;;;;;13.13;6.88;;;;;;;13.48;48.19;96734.38;5060690;28;21076;-78
2022/10/17 09:52:20;;;;;;;13.07;6.00;;;;;;;14.12;44.24;96652.41;5064040;28;20482;-77
2022/10/17 09:54:49;;;;;;;12.60;6.00;;;;;;;16.27;41.42;96743.34;5063131;28;20418;-82
2022/10/17 09:57:16;;;;;;;14.10;4.57;;;;;;;17.36;38.81;96675.31;5047810;28;20372;-79
2022/10/17 09:59:55;;;;;;;8.82;4.85;;;;;;;19.24;36.07;96731.31;5068137;28;20036;-79
2022/10/17 10:02:23;;;;;;;14.05;4.78;;;;;;;20.54;33.14;96733.25;5066912;28;20076;-78
2022/10/17 10:05:10;;;;;;;9.43;4.80;;;;;;;21.65;29.54;96730.91;5040812;28;20048;-79
2022/10/17 10:07:38;;;;;;;11.77;4.47;;;;;;;22.56;28.63;96700.75;5050848;28;20530;-80
2022/10/17 10:10:07;;;;;;;11.32;4.57;;;;;;;23.47;27.43;96725.16;5062318;28;20589;-81
2022/10/17 10:12:36;;;;;;;7.32;3.25;;;;;;;23.35;24.87;96622.91;5030545;28;20035;-81
2022/10/17 10:15:32;;;;;;;7.80;3.28;;;;;;;24.51;24.21;96704.91;5059723;28;20577;-80
2022/10/17 10:17:58;;;;;;;9.60;2.95;;;;;;;24.86;23.33;96669.47;5058511;28;20040;-79
2022/10/17 10:20:27;;;;;;;4.50;2.58;;;;;;;25.50;21.35;96710.72;5062398;28;20069;-80
2022/10/17 10:23:12;;;;;;;8.30;2.58;;;;;;;25.97;21.16;96711.28;5016075;28;20079;-80
2022/10/17 10:25:47;;;;;;;7.18;3.05;;;;;;;26.02;20.62;96673.00;5016574;28;20470;-78
2022/10/17 10:28:15;;;;;;;8.75;3.40;;;;;;;26.10;21.70;96672.13;5019722;28;20066;-76
2022/10/17 10:30:47;;;;;;;8.80;2.65;;;;;;;26.11;21.64;96648.44;5020031;28;20116;-77
2022/10/17 10:33:12;;;;;;;7.03;2.90;;;;;;;25.21;21.99;96602.19;5024546;28;20231;-78
2022/10/17 10:35:38;;;;;;;4.78;2.33;;;;;;;25.00;21.54;96588.63;5011171;28;20052;-78
2022/10/17 10:38:15;;;;;;;6.45;2.70;;;;;;;25.76;20.67;96702.38;5035813;28;20041;-77
2022/10/17 10:40:53;;;;;;;8.77;3.20;;;;;;;24.61;20.89;96570.84;5039421;28;20115;-77
2022/10/17 10:43:30;;;;;;;9.10;3.28;;;;;;;25.71;21.97;96702.56;5032986;28;20054;-81
2022/10/17 10:45:56;;;;;;;10.18;3.45;;;;;;;24.27;22.98;96505.97;5019285;28;20066;-78
2022/10/17 10:48:29;;;;;;;4.80;2.70;;;;;;;25.37;22.27;96625.69;5035322;28;20146;-76
2022/10/17 10:51:12;;;;;;;6.25;3.00;;;;;;;25.51;21.87;96625.38;5036439;28;20170;-78
2022/10/17 10:53:40;;;;;;;7.38;3.10;;;;;;;26.08;21.77;96692.63;5042661;28;20490;-78
2022/10/17 10:56:18;;;;;;;7.18;3.00;;;;;;;25.08;21.53;96608.69;5024503;28;20154;-78
2022/10/17 10:58:54;;;;;;;6.45;2.83;;;;;;;25.47;21.92;96686.94;5044161;28;20154;-79
2022/10/17 11:01:46;;;;;;;5.43;2.92;;;;;;;24.89;22.01;96533.13;5047566;28;20117;-79
2022/10/17 11:04:38;;;;;;;5.63;2.67;;;;;;;25.70;22.04;96647.47;5043632;28;20037;-79
2022/10/17 11:07:12;;;;;;;7.82;3.42;;;;;;;25.93;21.27;96675.03;5038863;28;20398;-76
2022/10/17 11:10:22;;;;;;;5.07;3.60;;;;;;;25.79;21.57;96668.28;5036268;28;20044;-78
2022/10/17 11:12:56;;;;;;;7.00;2.80;;;;;;;25.53;21.85;96671.25;4961905;28;20148;-79
2022/10/17 11:15:34;;;;;;;8.30;2.85;;;;;;;25.24;21.83;96621.34;4941379;28;20049;-79
2022/10/17 11:18:07;;;;;;;8.63;3.42;;;;;;;25.54;20.42;96667.41;5003694;28;20078;-80
2022/10/17 11:21:10;;;;;;;9.23;2.90;;;;;;;25.64;20.71;96656.94;5036768;28;20544;-77
2022/10/17 11:23:45;;;;;;;7.07;3.55;;;;;;;25.87;20.76;96660.06;5055589;28;20510;-76
2022/10/17 11:26:32;;;;;;;4.82;2.78;;;;;;;25.70;20.16;96619.50;5061496;28;20150;-77
2022/10/17 11:29:02;;;;;;;7.22;3.10;;;;;;;25.28;20.34;96637.72;5064885;28;20581;-77
2022/10/17 11:31:36;;;;;;;5.30;3.85;;;;;;;25.37;20.62;96630.31;5038316;28;20043;-79
2022/10/17 11:34:24;;;;;;;5.70;2.97;;;;;;;25.18;21.24;96602.84;5059684;28;20044;-77
2022/10/17 11:36:55;;;;;;;12.07;3.40;;;;;;;25.77;21.62;96649.63;5026434;28;20039;-78
2022/10/17 11:39:36;;;;;;;4.03;2.85;;;;;;;25.88;21.18;96647.25;5059808;28;20189;-78
2022/10/17 11:42:06;;;;;;;3.78;2.95;;;;;;;26.00;20.31;96648.09;5039713;28;20051;-78